Time;durP1;ratioP1;P1;durP2;ratioP2;P2;SDS_P1;SDS_P2;PMS_P1;PMS_P2;Temp;Humidity;BMP_temperature;BMP_pressure;BME280_temperature;BME280_humidity;BME280_pressure;Samples;Min_cycle;Max_cycle;Signal;HPM_P1;HPM_P2
2023/12/21 00:01:32;;;;;;;13.53;12.80;;;;;;;;;;5041555;28;20456;-39
2023/12/21 00:04:01;;;;;;;14.37;13.57;;;;;;;;;;5034401;28;20512;-39
2023/12/21 00:06:29;;;;;;;14.57;13.63;;;;;;;;;;5043791;28;21157;-37
2023/12/21 00:08:57;;;;;;;14.40;13.50;;;;;;;;;;5043443;28;20467;-38
2023/12/21 00:11:24;;;;;;;15.03;14.13;;;;;;;;;;5036771;28;20458;-37
2023/12/21 00:13:52;;;;;;;14.80;14.10;;;;;;;;;;5037098;28;20468;-37
2023/12/21 00:16:20;;;;;;;15.50;14.70;;;;;;;;;;5037390;28;20482;-37
2023/12/21 00:18:47;;;;;;;16.30;15.30;;;;;;;;;;5036509;28;20460;-37
2023/12/21 00:21:16;;;;;;;16.93;15.70;;;;;;;;;;5039262;28;20452;-44
2023/12/21 00:23:44;;;;;;;16.50;15.60;;;;;;;;;;5045572;28;20957;-39
2023/12/21 00:26:11;;;;;;;17.53;16.33;;;;;;;;;;5051220;28;20535;-37
2023/12/21 00:28:39;;;;;;;17.40;16.20;;;;;;;;;;5038376;28;20460;-37
2023/12/21 00:31:06;;;;;;;17.17;15.87;;;;;;;;;;5036209;28;20468;-39
2023/12/21 00:33:34;;;;;;;17.97;16.57;;;;;;;;;;5037642;28;20424;-39
2023/12/21 00:36:02;;;;;;;18.50;17.20;;;;;;;;;;5036667;28;20433;-38
2023/12/21 00:38:31;;;;;;;17.93;16.73;;;;;;;;;;5037660;28;20455;-37
2023/12/21 00:41:00;;;;;;;20.23;18.43;;;;;;;;;;5039398;28;20459;-37
2023/12/21 00:43:28;;;;;;;20.60;18.63;;;;;;;;;;5048401;28;20443;-38
2023/12/21 00:45:56;;;;;;;19.23;17.93;;;;;;;;;;5036850;28;20542;-41
2023/12/21 00:48:23;;;;;;;18.77;17.57;;;;;;;;;;5043373;28;20478;-38
2023/12/21 00:50:51;;;;;;;19.90;18.40;;;;;;;;;;5049576;28;20455;-38
2023/12/21 00:53:20;;;;;;;19.60;18.10;;;;;;;;;;5046380;28;20448;-39
2023/12/21 00:55:49;;;;;;;22.37;19.97;;;;;;;;;;5037897;28;20468;-43
2023/12/21 00:58:16;;;;;;;21.93;20.13;;;;;;;;;;5035235;28;20963;-38
2023/12/21 01:00:44;;;;;;;20.90;18.90;;;;;;;;;;5036101;28;20522;-38
2023/12/21 01:03:11;;;;;;;21.57;19.43;;;;;;;;;;5036358;28;20435;-37
2023/12/21 01:05:39;;;;;;;21.00;18.90;;;;;;;;;;5044739;28;20507;-37
2023/12/21 01:08:07;;;;;;;24.83;20.73;;;;;;;;;;5048352;28;20949;-37
2023/12/21 01:10:38;;;;;;;20.57;18.80;;;;;;;;;;5038477;28;20456;-37
2023/12/21 01:13:08;;;;;;;20.00;18.40;;;;;;;;;;5036310;28;20456;-40
2023/12/21 01:15:35;;;;;;;21.53;19.23;;;;;;;;;;5036057;28;20428;-38
2023/12/21 01:18:07;;;;;;;22.60;19.73;;;;;;;;;;5054201;28;20420;-37
2023/12/21 01:20:34;;;;;;;17.63;16.40;;;;;;;;;;5038105;28;20535;-38
2023/12/21 01:23:02;;;;;;;19.60;17.70;;;;;;;;;;5020324;28;20432;-40
2023/12/21 01:25:30;;;;;;;18.63;16.90;;;;;;;;;;5036111;28;20472;-39
2023/12/21 01:27:58;;;;;;;17.90;16.20;;;;;;;;;;5042958;28;20421;-38
2023/12/21 01:30:27;;;;;;;16.97;15.87;;;;;;;;;;5035080;28;20561;-37
2023/12/21 01:32:55;;;;;;;17.50;15.90;;;;;;;;;;5035501;28;20521;-37
2023/12/21 01:35:22;;;;;;;18.00;16.50;;;;;;;;;;5036545;28;20440;-39
2023/12/21 01:37:50;;;;;;;18.53;16.70;;;;;;;;;;5034787;28;20428;-39
2023/12/21 01:40:18;;;;;;;18.40;16.67;;;;;;;;;;5035128;28;20440;-37
2023/12/21 01:42:45;;;;;;;18.53;16.97;;;;;;;;;;5043560;28;20455;-38
2023/12/21 01:45:13;;;;;;;18.20;16.57;;;;;;;;;;5035470;28;20458;-38
2023/12/21 01:47:42;;;;;;;17.67;15.87;;;;;;;;;;5043354;28;20436;-39
2023/12/21 01:50:11;;;;;;;18.60;16.03;;;;;;;;;;5034145;28;20595;-38
2023/12/21 01:52:39;;;;;;;17.93;15.50;;;;;;;;;;5037247;28;20447;-37
2023/12/21 01:55:08;;;;;;;16.50;14.93;;;;;;;;;;5033784;28;20452;-37
2023/12/21 01:57:36;;;;;;;15.93;14.83;;;;;;;;;;5035101;28;20436;-37
2023/12/21 02:00:04;;;;;;;15.43;14.30;;;;;;;;;;5036368;28;20488;-38
2023/12/21 02:02:31;;;;;;;14.80;13.60;;;;;;;;;;5032684;28;20486;-37
2023/12/21 02:05:00;;;;;;;15.17;14.17;;;;;;;;;;5035481;28;20441;-38
2023/12/21 02:07:28;;;;;;;14.33;13.63;;;;;;;;;;5035005;28;20523;-40
2023/12/21 02:09:55;;;;;;;14.07;13.30;;;;;;;;;;5035846;28;20460;-38
2023/12/21 02:12:23;;;;;;;14.70;13.60;;;;;;;;;;5034048;28;20503;-39
2023/12/21 02:14:51;;;;;;;14.70;13.97;;;;;;;;;;5035107;28;20454;-37
2023/12/21 02:17:21;;;;;;;15.00;14.00;;;;;;;;;;5034666;28;20531;-38
2023/12/21 02:19:48;;;;;;;14.10;13.33;;;;;;;;;;5043730;28;20488;-38
2023/12/21 02:22:18;;;;;;;14.87;13.90;;;;;;;;;;5033720;28;20971;-38
2023/12/21 02:24:47;;;;;;;15.03;14.20;;;;;;;;;;5034086;28;20922;-38
2023/12/21 02:27:15;;;;;;;15.63;14.53;;;;;;;;;;5035048;28;20506;-38
2023/12/21 02:29:42;;;;;;;15.87;15.07;;;;;;;;;;5034589;28;20488;-37
2023/12/21 02:32:10;;;;;;;16.93;15.63;;;;;;;;;;5035646;28;21182;-37
2023/12/21 02:34:37;;;;;;;17.93;16.63;;;;;;;;;;5035845;28;20518;-37
2023/12/21 02:37:05;;;;;;;16.40;15.30;;;;;;;;;;5033847;28;20469;-38
2023/12/21 02:39:33;;;;;;;16.63;15.23;;;;;;;;;;5049853;28;20459;-39
2023/12/21 02:42:01;;;;;;;17.20;15.90;;;;;;;;;;5054486;28;20456;-39
2023/12/21 02:44:29;;;;;;;17.60;16.50;;;;;;;;;;5047640;28;20527;-39
2023/12/21 02:46:58;;;;;;;16.80;15.17;;;;;;;;;;5034541;28;20479;-40
2023/12/21 02:49:25;;;;;;;17.23;15.93;;;;;;;;;;5033550;28;21248;-38
2023/12/21 02:51:55;;;;;;;17.17;15.80;;;;;;;;;;5046158;28;20459;-40
2023/12/21 02:54:22;;;;;;;17.30;16.10;;;;;;;;;;5044734;28;20431;-38
2023/12/21 02:56:50;;;;;;;16.60;15.37;;;;;;;;;;5036614;28;20916;-39
2023/12/21 02:59:19;;;;;;;16.97;15.33;;;;;;;;;;5040396;28;20505;-39
2023/12/21 03:01:46;;;;;;;17.90;16.60;;;;;;;;;;5049823;28;20538;-42
2023/12/21 03:04:14;;;;;;;18.33;16.73;;;;;;;;;;5047583;28;20466;-38
2023/12/21 03:06:42;;;;;;;16.63;15.53;;;;;;;;;;5047168;28;20467;-39
2023/12/21 03:09:10;;;;;;;17.10;15.90;;;;;;;;;;5046518;28;20461;-41
2023/12/21 03:11:38;;;;;;;17.53;15.50;;;;;;;;;;5047656;28;20504;-40
2023/12/21 03:14:05;;;;;;;17.60;16.03;;;;;;;;;;5051577;28;20427;-39
2023/12/21 03:16:34;;;;;;;16.27;14.73;;;;;;;;;;5050678;28;21040;-39
2023/12/21 03:19:02;;;;;;;15.30;14.27;;;;;;;;;;5039745;28;21330;-40
2023/12/21 03:21:30;;;;;;;14.57;13.67;;;;;;;;;;5031374;28;20456;-39
2023/12/21 03:23:57;;;;;;;14.73;13.60;;;;;;;;;;5030934;28;21099;-38
2023/12/21 03:26:25;;;;;;;16.70;15.10;;;;;;;;;;5030918;28;20487;-41
2023/12/21 03:28:52;;;;;;;20.03;14.30;;;;;;;;;;5030960;28;20478;-41
2023/12/21 03:31:20;;;;;;;23.37;15.50;;;;;;;;;;5031402;28;20499;-37
2023/12/21 03:33:49;;;;;;;23.43;17.03;;;;;;;;;;5030887;28;20462;-39
2023/12/21 03:36:17;;;;;;;32.97;15.83;;;;;;;;;;5030811;28;21035;-43
2023/12/21 03:38:44;;;;;;;21.70;16.00;;;;;;;;;;5030008;28;20540;-39
2023/12/21 03:41:12;;;;;;;28.43;16.67;;;;;;;;;;5031036;28;20551;-38
2023/12/21 03:43:39;;;;;;;19.83;15.10;;;;;;;;;;5030925;28;20482;-39
2023/12/21 03:46:08;;;;;;;23.57;15.30;;;;;;;;;;5030495;28;20537;-40
2023/12/21 03:48:36;;;;;;;28.03;15.60;;;;;;;;;;5030426;28;20492;-41
2023/12/21 03:51:06;;;;;;;17.47;14.43;;;;;;;;;;5030216;28;20495;-39
2023/12/21 03:53:33;;;;;;;20.93;15.17;;;;;;;;;;5030440;28;20435;-39
2023/12/21 03:56:01;;;;;;;26.80;16.00;;;;;;;;;;5030587;28;20435;-38
2023/12/21 03:58:28;;;;;;;27.83;16.33;;;;;;;;;;5030537;28;20447;-40
2023/12/21 04:00:56;;;;;;;26.00;17.70;;;;;;;;;;5030092;28;20460;-40
2023/12/21 04:03:24;;;;;;;31.40;16.00;;;;;;;;;;5030613;28;20515;-39
2023/12/21 04:05:53;;;;;;;19.80;16.00;;;;;;;;;;5029823;28;20859;-38
2023/12/21 04:08:23;;;;;;;24.17;15.57;;;;;;;;;;5030010;28;20459;-40
2023/12/21 04:10:51;;;;;;;22.63;16.43;;;;;;;;;;5030634;28;21002;-39
2023/12/21 04:13:18;;;;;;;37.37;16.53;;;;;;;;;;5030365;28;20472;-42
2023/12/21 04:15:46;;;;;;;21.40;15.67;;;;;;;;;;5030275;28;20505;-38
2023/12/21 04:18:14;;;;;;;21.83;16.67;;;;;;;;;;5029786;28;20865;-39
2023/12/21 04:20:42;;;;;;;43.57;17.67;;;;;;;;;;5030340;28;20456;-39
2023/12/21 04:23:09;;;;;;;20.30;16.00;;;;;;;;;;5030009;28;20584;-39
2023/12/21 04:25:39;;;;;;;22.07;16.47;;;;;;;;;;5030318;28;20533;-39
2023/12/21 04:28:06;;;;;;;22.10;15.90;;;;;;;;;;5029493;28;20476;-38
2023/12/21 04:30:34;;;;;;;27.77;17.30;;;;;;;;;;5030976;28;20460;-38
2023/12/21 04:33:02;;;;;;;19.37;17.50;;;;;;;;;;5028968;28;20777;-38
2023/12/21 04:35:29;;;;;;;30.70;17.27;;;;;;;;;;5030254;28;20510;-39
2023/12/21 04:37:57;;;;;;;23.50;16.60;;;;;;;;;;5031146;28;20491;-39
2023/12/21 04:40:24;;;;;;;22.67;15.03;;;;;;;;;;5026922;28;20542;-41
2023/12/21 04:42:55;;;;;;;22.23;17.00;;;;;;;;;;5029457;28;20459;-39
2023/12/21 04:45:23;;;;;;;20.33;15.80;;;;;;;;;;5029802;28;20578;-41
2023/12/21 04:47:51;;;;;;;33.23;17.40;;;;;;;;;;5028560;28;20963;-41
2023/12/21 04:50:19;;;;;;;23.40;16.73;;;;;;;;;;5029671;28;20514;-39
2023/12/21 04:52:46;;;;;;;37.43;18.30;;;;;;;;;;5029978;28;20442;-41
2023/12/21 04:55:15;;;;;;;23.50;16.90;;;;;;;;;;5029164;28;20436;-38
2023/12/21 04:57:43;;;;;;;32.83;18.13;;;;;;;;;;5029337;28;20968;-38
2023/12/21 05:00:13;;;;;;;27.07;18.40;;;;;;;;;;5028675;28;20460;-39
2023/12/21 05:02:40;;;;;;;29.43;18.50;;;;;;;;;;5029283;28;21155;-41
2023/12/21 05:05:08;;;;;;;45.50;20.50;;;;;;;;;;5029932;28;20447;-39
2023/12/21 05:07:37;;;;;;;27.73;18.73;;;;;;;;;;5029064;28;20472;-39
2023/12/21 05:10:05;;;;;;;29.83;18.50;;;;;;;;;;5028537;28;20683;-39
2023/12/21 05:12:33;;;;;;;33.00;19.60;;;;;;;;;;5029569;28;20436;-42
2023/12/21 05:15:00;;;;;;;35.37;20.27;;;;;;;;;;5030583;28;20442;-39
2023/12/21 05:17:29;;;;;;;40.50;21.27;;;;;;;;;;5027228;28;20494;-39
2023/12/21 05:19:57;;;;;;;43.10;21.43;;;;;;;;;;5029179;28;20473;-39
2023/12/21 05:22:24;;;;;;;48.43;21.20;;;;;;;;;;5028160;28;20447;-40
2023/12/21 05:24:52;;;;;;;45.57;22.47;;;;;;;;;;5029690;28;20432;-42
2023/12/21 05:27:19;;;;;;;54.90;22.40;;;;;;;;;;5029844;28;20479;-39
2023/12/21 05:29:47;;;;;;;46.20;22.40;;;;;;;;;;5027018;28;20471;-40
2023/12/21 05:32:16;;;;;;;45.50;24.40;;;;;;;;;;5028855;28;20598;-39
2023/12/21 05:34:45;;;;;;;34.67;22.37;;;;;;;;;;5029017;28;20471;-38
2023/12/21 05:37:12;;;;;;;41.70;21.93;;;;;;;;;;5028107;28;20938;-39
2023/12/21 05:39:40;;;;;;;41.67;21.30;;;;;;;;;;5028054;28;20464;-39
2023/12/21 05:42:07;;;;;;;35.60;21.83;;;;;;;;;;5028691;28;20456;-39
2023/12/21 05:44:35;;;;;;;28.77;20.50;;;;;;;;;;5028849;28;20436;-38
2023/12/21 05:47:03;;;;;;;35.50;23.10;;;;;;;;;;5028234;28;20448;-40
2023/12/21 05:49:30;;;;;;;42.73;23.93;;;;;;;;;;5028731;28;20460;-39
2023/12/21 05:51:59;;;;;;;29.13;21.93;;;;;;;;;;5027848;28;20492;-40
2023/12/21 05:54:30;;;;;;;36.03;21.23;;;;;;;;;;5028582;28;20515;-41
2023/12/21 05:56:58;;;;;;;28.07;20.43;;;;;;;;;;5028810;28;20474;-41
2023/12/21 05:59:25;;;;;;;25.47;21.40;;;;;;;;;;5027588;28;20471;-39
2023/12/21 06:01:53;;;;;;;26.77;22.07;;;;;;;;;;5028874;28;20452;-39
2023/12/21 06:04:21;;;;;;;24.90;21.87;;;;;;;;;;5028040;28;20785;-39
2023/12/21 06:06:48;;;;;;;25.17;20.13;;;;;;;;;;5027723;28;20435;-42
2023/12/21 06:09:18;;;;;;;20.63;18.60;;;;;;;;;;5028084;28;20467;-39
2023/12/21 06:11:45;;;;;;;21.23;18.80;;;;;;;;;;5030475;28;20527;-39
2023/12/21 06:14:17;;;;;;;18.33;16.77;;;;;;;;;;5026708;28;20518;-38
2023/12/21 06:16:44;;;;;;;19.37;16.90;;;;;;;;;;5028471;28;21040;-40
2023/12/21 06:19:14;;;;;;;17.77;16.33;;;;;;;;;;5029677;28;22456;-40
2023/12/21 06:21:42;;;;;;;17.97;16.43;;;;;;;;;;5033821;28;20539;-39
2023/12/21 06:24:09;;;;;;;17.30;15.70;;;;;;;;;;5027612;28;20468;-40
2023/12/21 06:26:40;;;;;;;16.07;14.97;;;;;;;;;;5027897;28;20442;-39
2023/12/21 06:29:08;;;;;;;15.90;14.90;;;;;;;;;;5027371;28;21002;-40
2023/12/21 06:31:36;;;;;;;16.00;14.77;;;;;;;;;;5029027;28;20474;-38
2023/12/21 06:34:03;;;;;;;16.23;15.07;;;;;;;;;;5028072;28;20460;-39
2023/12/21 06:36:31;;;;;;;17.40;15.77;;;;;;;;;;5027562;28;20471;-39
2023/12/21 06:38:59;;;;;;;17.10;15.47;;;;;;;;;;5026632;28;20461;-41
2023/12/21 06:41:28;;;;;;;17.47;15.60;;;;;;;;;;5027470;28;21029;-39
2023/12/21 06:43:57;;;;;;;18.13;16.27;;;;;;;;;;5027586;28;20491;-42
2023/12/21 06:46:24;;;;;;;17.43;16.13;;;;;;;;;;5028281;28;20440;-42
2023/12/21 06:48:52;;;;;;;18.23;16.80;;;;;;;;;;5026268;28;20475;-39
2023/12/21 06:51:19;;;;;;;19.37;16.97;;;;;;;;;;5027357;28;20452;-40
2023/12/21 06:53:47;;;;;;;17.80;16.70;;;;;;;;;;5028089;28;21175;-43
2023/12/21 06:56:17;;;;;;;19.47;16.90;;;;;;;;;;5028246;28;20522;-42
2023/12/21 06:59:02;;;;;;;18.47;17.27;;;;;;;;;;5026376;28;20471;-40
2023/12/21 07:01:30;;;;;;;18.50;17.10;;;;;;;;;;5027287;28;20444;-39
2023/12/21 07:03:57;;;;;;;19.50;18.33;;;;;;;;;;5026587;28;20436;-41
2023/12/21 07:06:26;;;;;;;19.10;17.73;;;;;;;;;;5027547;28;20439;-40
2023/12/21 07:08:53;;;;;;;18.13;17.23;;;;;;;;;;5027010;28;20518;-39
2023/12/21 07:11:21;;;;;;;18.13;16.77;;;;;;;;;;5026990;28;20543;-39
2023/12/21 07:13:48;;;;;;;18.13;16.90;;;;;;;;;;5027965;28;21019;-39
2023/12/21 07:16:17;;;;;;;17.40;16.10;;;;;;;;;;5026957;28;20486;-39
2023/12/21 07:18:45;;;;;;;16.70;15.60;;;;;;;;;;5033428;28;20521;-39
2023/12/21 07:21:13;;;;;;;16.57;15.40;;;;;;;;;;5037005;28;20800;-40
2023/12/21 07:23:41;;;;;;;17.40;16.10;;;;;;;;;;5027308;28;20440;-43
2023/12/21 07:26:10;;;;;;;16.10;14.90;;;;;;;;;;5043751;28;20431;-41
2023/12/21 07:28:39;;;;;;;15.73;14.83;;;;;;;;;;5035617;28;20476;-41
2023/12/21 07:31:07;;;;;;;18.90;15.90;;;;;;;;;;5035025;28;20482;-39
2023/12/21 07:33:37;;;;;;;16.60;15.10;;;;;;;;;;5033059;28;20478;-45
2023/12/21 07:36:07;;;;;;;16.37;15.13;;;;;;;;;;5046302;28;20814;-43
2023/12/21 07:38:34;;;;;;;15.77;14.67;;;;;;;;;;5046940;28;20459;-39
2023/12/21 07:41:03;;;;;;;15.70;14.43;;;;;;;;;;5029753;28;20474;-40
2023/12/21 07:43:31;;;;;;;15.67;14.50;;;;;;;;;;5039437;28;20867;-42
2023/12/21 07:45:58;;;;;;;16.63;15.30;;;;;;;;;;5038626;28;20770;-39
2023/12/21 07:48:26;;;;;;;16.60;15.30;;;;;;;;;;5042605;28;20472;-41
2023/12/21 07:50:55;;;;;;;18.27;16.53;;;;;;;;;;5026974;28;20593;-41
2023/12/21 07:53:22;;;;;;;24.10;17.20;;;;;;;;;;5047717;28;20490;-42
2023/12/21 07:55:50;;;;;;;19.43;17.50;;;;;;;;;;5040788;28;20432;-40
2023/12/21 07:58:18;;;;;;;18.67;17.03;;;;;;;;;;5039019;28;20455;-42
2023/12/21 08:00:46;;;;;;;21.53;16.37;;;;;;;;;;5051179;28;20458;-39
2023/12/21 08:03:14;;;;;;;22.50;16.10;;;;;;;;;;5033356;28;20951;-40
2023/12/21 08:05:42;;;;;;;18.67;16.93;;;;;;;;;;5036732;28;20472;-39
2023/12/21 08:08:11;;;;;;;18.43;16.53;;;;;;;;;;5031728;28;20475;-41
2023/12/21 08:10:39;;;;;;;17.70;16.10;;;;;;;;;;5037765;28;20448;-41
2023/12/21 08:13:08;;;;;;;16.90;15.57;;;;;;;;;;5029849;28;20523;-41
2023/12/21 08:15:36;;;;;;;18.97;16.80;;;;;;;;;;5030721;28;20444;-39
2023/12/21 08:18:04;;;;;;;20.97;18.63;;;;;;;;;;5030051;28;20440;-38
2023/12/21 08:20:33;;;;;;;22.43;17.63;;;;;;;;;;5046028;28;20859;-40
2023/12/21 08:23:03;;;;;;;20.83;17.60;;;;;;;;;;5030267;28;20850;-45
2023/12/21 08:25:32;;;;;;;22.20;16.80;;;;;;;;;;5035575;28;20457;-40
2023/12/21 08:28:00;;;;;;;19.20;17.20;;;;;;;;;;5032174;28;20908;-38
2023/12/21 08:30:27;;;;;;;18.73;16.73;;;;;;;;;;5038196;28;20545;-40
2023/12/21 08:32:55;;;;;;;21.97;16.30;;;;;;;;;;5037687;28;20443;-40
2023/12/21 08:35:23;;;;;;;21.63;15.90;;;;;;;;;;5031085;28;20858;-43
2023/12/21 08:37:50;;;;;;;20.93;17.50;;;;;;;;;;5028641;28;20443;-42
2023/12/21 08:40:18;;;;;;;21.90;17.83;;;;;;;;;;5040855;28;20454;-39
2023/12/21 08:42:47;;;;;;;29.37;19.20;;;;;;;;;;5049648;28;20815;-39
2023/12/21 08:45:15;;;;;;;23.40;17.90;;;;;;;;;;5049264;28;20431;-40
2023/12/21 08:47:42;;;;;;;18.57;16.27;;;;;;;;;;5049750;28;20534;-40
2023/12/21 08:50:11;;;;;;;25.90;17.37;;;;;;;;;;5050379;28;20499;-40
2023/12/21 08:52:38;;;;;;;18.83;16.83;;;;;;;;;;5046780;28;20822;-38
2023/12/21 08:55:08;;;;;;;24.77;18.63;;;;;;;;;;5020831;28;20428;-40
2023/12/21 08:57:36;;;;;;;20.07;17.40;;;;;;;;;;5028174;28;20867;-40
2023/12/21 09:00:06;;;;;;;18.17;16.50;;;;;;;;;;5025497;28;20464;-40
2023/12/21 09:02:34;;;;;;;20.93;16.30;;;;;;;;;;5029713;28;21190;-39
2023/12/21 09:05:02;;;;;;;17.77;15.87;;;;;;;;;;5027907;28;20437;-39
2023/12/21 09:07:30;;;;;;;17.00;15.43;;;;;;;;;;5071767;22;20503;-40
2023/12/21 09:09:58;;;;;;;16.97;15.50;;;;;;;;;;5032487;28;20480;-42
2023/12/21 09:12:25;;;;;;;18.53;16.57;;;;;;;;;;5032774;28;20882;-40
2023/12/21 09:14:53;;;;;;;27.40;16.27;;;;;;;;;;5032852;28;20444;-43
2023/12/21 09:17:22;;;;;;;29.30;16.23;;;;;;;;;;5030106;28;20830;-43
2023/12/21 09:19:49;;;;;;;25.47;18.10;;;;;;;;;;5027448;28;20887;-44
2023/12/21 09:22:17;;;;;;;20.47;17.90;;;;;;;;;;5029546;28;20451;-42
2023/12/21 09:24:45;;;;;;;20.37;18.30;;;;;;;;;;5026700;28;20490;-41
2023/12/21 09:27:14;;;;;;;21.87;19.20;;;;;;;;;;5032616;28;20440;-43
2023/12/21 09:29:42;;;;;;;22.87;17.80;;;;;;;;;;5003768;28;20649;-40
2023/12/21 09:32:10;;;;;;;21.43;18.23;;;;;;;;;;4992984;28;20442;-41
2023/12/21 09:34:39;;;;;;;18.47;16.50;;;;;;;;;;4993393;28;20752;-40
2023/12/21 09:37:07;;;;;;;19.63;16.40;;;;;;;;;;4992449;28;20898;-44
2023/12/21 09:39:36;;;;;;;19.87;17.97;;;;;;;;;;5007101;28;20461;-41
2023/12/21 09:42:04;;;;;;;29.23;17.73;;;;;;;;;;5012597;28;20437;-41
2023/12/21 09:44:32;;;;;;;22.67;18.63;;;;;;;;;;5004967;28;20856;-42
2023/12/21 09:47:01;;;;;;;29.03;18.30;;;;;;;;;;5012422;28;20511;-40
2023/12/21 09:49:29;;;;;;;29.60;19.37;;;;;;;;;;5015236;28;20983;-40
2023/12/21 09:51:58;;;;;;;23.27;18.17;;;;;;;;;;5032038;28;20444;-41
2023/12/21 09:54:26;;;;;;;29.47;19.37;;;;;;;;;;5032167;28;20867;-40
2023/12/21 09:56:54;;;;;;;30.17;19.80;;;;;;;;;;5032351;28;20440;-49
2023/12/21 09:59:22;;;;;;;32.20;20.10;;;;;;;;;;5031634;28;20468;-44
2023/12/21 10:01:50;;;;;;;29.00;19.53;;;;;;;;;;5023875;28;20498;-42
2023/12/21 10:04:19;;;;;;;31.97;18.73;;;;;;;;;;5031688;28;20903;-41
2023/12/21 10:06:46;;;;;;;34.67;18.57;;;;;;;;;;5031989;28;20464;-41
2023/12/21 10:09:16;;;;;;;32.47;20.17;;;;;;;;;;5031115;28;20831;-43
2023/12/21 10:11:43;;;;;;;23.20;20.30;;;;;;;;;;5023474;28;20512;-42
2023/12/21 10:14:14;;;;;;;43.10;20.93;;;;;;;;;;5031873;28;20501;-41
2023/12/21 10:16:42;;;;;;;33.90;20.27;;;;;;;;;;5031666;28;21011;-41
2023/12/21 10:19:11;;;;;;;27.33;18.50;;;;;;;;;;5030977;28;21005;-42
2023/12/21 10:21:39;;;;;;;34.77;21.40;;;;;;;;;;5031451;28;20528;-40
2023/12/21 10:24:07;;;;;;;44.00;21.23;;;;;;;;;;5023454;28;20878;-43
2023/12/21 10:26:43;;;;;;;23.33;21.07;;;;;;;;;;5031487;28;20437;-43
2023/12/21 10:29:15;;;;;;;31.33;20.57;;;;;;;;;;5031054;28;20499;-44
2023/12/21 10:31:44;;;;;;;29.93;19.77;;;;;;;;;;5031721;28;20893;-43
2023/12/21 10:34:11;;;;;;;21.53;19.10;;;;;;;;;;5023332;28;20439;-43
2023/12/21 10:36:39;;;;;;;22.30;20.00;;;;;;;;;;5027119;28;20445;-41
2023/12/21 10:39:08;;;;;;;27.60;18.40;;;;;;;;;;5027695;28;20467;-40
2023/12/21 10:41:36;;;;;;;26.50;19.07;;;;;;;;;;5031613;28;20428;-42
2023/12/21 10:44:05;;;;;;;27.97;19.57;;;;;;;;;;5031537;28;20445;-42
2023/12/21 10:46:32;;;;;;;27.43;19.33;;;;;;;;;;5031654;28;20436;-42
2023/12/21 10:49:01;;;;;;;18.83;17.50;;;;;;;;;;5031339;28;20868;-43
2023/12/21 10:51:30;;;;;;;21.10;19.00;;;;;;;;;;5023205;28;21040;-44
2023/12/21 10:53:58;;;;;;;29.70;19.50;;;;;;;;;;5031500;28;20471;-41
2023/12/21 10:56:26;;;;;;;19.43;17.40;;;;;;;;;;5031212;28;20958;-43
2023/12/21 10:58:56;;;;;;;19.80;18.13;;;;;;;;;;5031106;28;20468;-43
2023/12/21 11:01:26;;;;;;;19.83;17.80;;;;;;;;;;5031175;28;20490;-40
2023/12/21 11:03:55;;;;;;;42.63;31.53;;;;;;;;;;5025341;28;20441;-41
2023/12/21 11:06:22;;;;;;;40.97;37.10;;;;;;;;;;5029415;28;20444;-41
2023/12/21 11:08:51;;;;;;;44.37;41.60;;;;;;;;;;5022382;28;20555;-41
2023/12/21 11:11:22;;;;;;;58.30;55.40;;;;;;;;;;5022749;28;21152;-43
2023/12/21 11:13:52;;;;;;;70.50;66.83;;;;;;;;;;5031539;28;20498;-40
2023/12/21 11:16:23;;;;;;;56.37;52.87;;;;;;;;;;5030929;28;20482;-40
2023/12/21 11:18:52;;;;;;;65.73;62.37;;;;;;;;;;5030613;28;21073;-40
2023/12/21 11:21:21;;;;;;;55.07;51.63;;;;;;;;;;5030861;28;20440;-41
2023/12/21 11:23:49;;;;;;;46.50;43.97;;;;;;;;;;5031421;28;20511;-40
2023/12/21 11:26:20;;;;;;;29.50;27.57;;;;;;;;;;5031392;28;20862;-41
2023/12/21 11:28:49;;;;;;;28.23;26.20;;;;;;;;;;5031065;28;20589;-39
2023/12/21 11:31:18;;;;;;;30.23;27.80;;;;;;;;;;5023087;28;20904;-40
2023/12/21 11:33:46;;;;;;;32.37;30.10;;;;;;;;;;5033600;28;20439;-42
2023/12/21 11:36:25;;;;;;;26.73;25.33;;;;;;;;;;5034833;28;20456;-42
2023/12/21 11:38:53;;;;;;;25.20;23.60;;;;;;;;;;5034704;28;20559;-41
2023/12/21 11:41:24;;;;;;;24.23;22.57;;;;;;;;;;5035085;28;20501;-39
2023/12/21 11:43:54;;;;;;;22.80;21.10;;;;;;;;;;5034966;28;20502;-41
2023/12/21 11:46:21;;;;;;;21.40;19.90;;;;;;;;;;5034340;28;20444;-41
2023/12/21 11:48:49;;;;;;;21.53;19.47;;;;;;;;;;5034124;28;20456;-40
2023/12/21 11:51:17;;;;;;;19.27;17.90;;;;;;;;;;5034578;28;20514;-41
2023/12/21 11:53:46;;;;;;;20.30;18.33;;;;;;;;;;5034733;28;20451;-39
2023/12/21 11:56:14;;;;;;;23.57;18.77;;;;;;;;;;5026130;28;20440;-39
2023/12/21 11:58:43;;;;;;;23.00;19.60;;;;;;;;;;5030150;28;20476;-41
2023/12/21 12:01:21;;;;;;;21.63;19.50;;;;;;;;;;5031037;28;20436;-39
2023/12/21 12:03:49;;;;;;;32.80;21.30;;;;;;;;;;5034620;28;20535;-40
2023/12/21 12:06:17;;;;;;;24.97;19.30;;;;;;;;;;5034243;28;20443;-39
2023/12/21 12:08:46;;;;;;;25.47;19.67;;;;;;;;;;5025426;28;20565;-42
2023/12/21 12:11:14;;;;;;;23.17;18.70;;;;;;;;;;5033954;28;20480;-40
2023/12/21 12:13:42;;;;;;;29.87;19.03;;;;;;;;;;5034568;28;20472;-39
2023/12/21 12:16:10;;;;;;;24.97;18.70;;;;;;;;;;5033770;28;20447;-39
2023/12/21 12:18:39;;;;;;;24.00;19.03;;;;;;;;;;5033684;28;20463;-39
2023/12/21 12:21:07;;;;;;;28.27;18.10;;;;;;;;;;5033928;28;20518;-41
2023/12/21 12:23:35;;;;;;;27.63;19.23;;;;;;;;;;5033910;28;20435;-39
2023/12/21 12:26:04;;;;;;;32.37;21.50;;;;;;;;;;5033703;28;20539;-45
2023/12/21 12:28:32;;;;;;;33.80;20.53;;;;;;;;;;5033216;28;20472;-39
2023/12/21 12:30:59;;;;;;;25.77;18.70;;;;;;;;;;5033658;28;20476;-39
2023/12/21 12:33:28;;;;;;;27.77;17.47;;;;;;;;;;5025545;28;20469;-41
2023/12/21 12:35:56;;;;;;;23.00;16.97;;;;;;;;;;5033394;28;20523;-39
2023/12/21 12:38:27;;;;;;;22.03;17.27;;;;;;;;;;5024713;28;20518;-40
2023/12/21 12:40:55;;;;;;;24.00;15.70;;;;;;;;;;5033695;28;20993;-40
2023/12/21 12:43:30;;;;;;;19.43;15.57;;;;;;;;;;5033082;28;20448;-40
2023/12/21 12:45:58;;;;;;;19.53;15.93;;;;;;;;;;5033881;28;20458;-41
2023/12/21 12:48:26;;;;;;;19.67;16.33;;;;;;;;;;5033018;28;20547;-40
2023/12/21 12:50:55;;;;;;;24.03;19.53;;;;;;;;;;5033561;28;20441;-40
2023/12/21 12:53:23;;;;;;;20.00;18.17;;;;;;;;;;5033499;28;20516;-40
2023/12/21 12:55:55;;;;;;;23.47;19.03;;;;;;;;;;5025606;28;20540;-42
2023/12/21 12:58:23;;;;;;;22.33;20.10;;;;;;;;;;5032629;28;20460;-40
2023/12/21 13:00:52;;;;;;;24.20;21.97;;;;;;;;;;5033422;28;20441;-42
2023/12/21 13:03:20;;;;;;;23.33;21.60;;;;;;;;;;5032890;28;20440;-40
2023/12/21 13:05:47;;;;;;;22.50;21.00;;;;;;;;;;5033419;28;20451;-41
2023/12/21 13:08:20;;;;;;;23.10;20.80;;;;;;;;;;5024318;28;20486;-41
2023/12/21 13:10:47;;;;;;;23.70;21.20;;;;;;;;;;5033384;28;20440;-41
2023/12/21 13:13:15;;;;;;;25.43;23.00;;;;;;;;;;5025375;28;20480;-41
2023/12/21 13:15:42;;;;;;;22.67;20.57;;;;;;;;;;5021928;28;20445;-40
2023/12/21 13:18:11;;;;;;;30.83;22.30;;;;;;;;;;5027762;28;20632;-39
2023/12/21 13:20:39;;;;;;;28.93;22.80;;;;;;;;;;5027772;28;20459;-39
2023/12/21 13:23:06;;;;;;;40.13;23.30;;;;;;;;;;5032744;28;20915;-42
2023/12/21 13:25:36;;;;;;;25.87;22.93;;;;;;;;;;5032739;28;20534;-40
2023/12/21 13:28:04;;;;;;;32.33;24.23;;;;;;;;;;5031816;28;20463;-41
2023/12/21 13:30:45;;;;;;;37.63;25.43;;;;;;;;;;5024905;28;20797;-40
2023/12/21 13:33:14;;;;;;;50.00;25.40;;;;;;;;;;5032886;28;20563;-42
2023/12/21 13:35:42;;;;;;;32.17;24.40;;;;;;;;;;5032741;28;20507;-42
2023/12/21 13:38:09;;;;;;;39.07;23.80;;;;;;;;;;5032199;28;20460;-39
2023/12/21 13:40:37;;;;;;;26.70;22.97;;;;;;;;;;5032793;28;20441;-40
2023/12/21 13:43:05;;;;;;;41.90;24.33;;;;;;;;;;5032599;28;20448;-42
2023/12/21 13:45:32;;;;;;;35.80;24.63;;;;;;;;;;5033040;28;20950;-42
2023/12/21 13:48:00;;;;;;;29.07;23.13;;;;;;;;;;5024001;28;20470;-42
2023/12/21 13:50:29;;;;;;;39.77;22.90;;;;;;;;;;5032312;28;20879;-41
2023/12/21 13:52:57;;;;;;;31.87;25.13;;;;;;;;;;5032347;28;20476;-40
2023/12/21 13:55:24;;;;;;;35.73;21.97;;;;;;;;;;5031621;28;20858;-42
2023/12/21 13:57:52;;;;;;;31.07;23.63;;;;;;;;;;5023422;28;20971;-40
2023/12/21 14:00:22;;;;;;;30.60;23.90;;;;;;;;;;5032300;28;20446;-41
2023/12/21 14:02:49;;;;;;;53.03;47.77;;;;;;;;;;5032305;28;20931;-41
2023/12/21 14:05:17;;;;;;;99.20;91.70;;;;;;;;;;5032041;28;20443;-41
2023/12/21 14:07:46;;;;;;;98.53;92.10;;;;;;;;;;5023527;28;20571;-40
2023/12/21 14:10:15;;;;;;;133.13;124.87;;;;;;;;;;5031522;28;20510;-41
2023/12/21 14:12:42;;;;;;;96.73;90.83;;;;;;;;;;5031616;28;20550;-43
2023/12/21 14:15:10;;;;;;;51.17;46.93;;;;;;;;;;5024129;28;20440;-42
2023/12/21 14:17:37;;;;;;;43.00;39.00;;;;;;;;;;5031631;28;20491;-40
2023/12/21 14:20:08;;;;;;;39.00;34.90;;;;;;;;;;5031274;28;20463;-40
2023/12/21 14:22:35;;;;;;;37.27;33.90;;;;;;;;;;5031370;28;20506;-40